createdAt,value
2023-02-22T00:01:51.676Z,5.00
2023-02-22T00:04:23.165Z,4.60
2023-02-22T00:06:53.334Z,4.60
2023-02-22T00:09:24.233Z,4.60
2023-02-22T00:11:53.613Z,5.80
2023-02-22T00:14:26.437Z,4.60
2023-02-22T00:17:00.205Z,3.80
2023-02-22T00:19:31.073Z,4.80
2023-02-22T00:22:00.697Z,4.80
2023-02-22T00:24:33.457Z,4.60
2023-02-22T00:27:03.726Z,4.70
2023-02-22T00:29:35.722Z,4.80
2023-02-22T00:32:04.973Z,4.70
2023-02-22T00:34:36.089Z,4.40
2023-02-22T00:37:05.769Z,4.80
2023-02-22T00:39:37.661Z,4.80
2023-02-22T00:42:06.920Z,4.90
2023-02-22T00:44:36.363Z,4.90
2023-02-22T00:47:05.127Z,5.90
2023-02-22T00:49:35.297Z,5.60
2023-02-22T00:52:05.098Z,5.60
2023-02-22T00:54:35.779Z,5.70
2023-02-22T00:57:05.252Z,5.20
2023-02-22T00:59:36.939Z,4.90
2023-02-22T01:02:06.341Z,5.10
2023-02-22T01:04:36.521Z,4.90
2023-02-22T01:07:06.585Z,5.00
2023-02-22T01:09:39.708Z,5.00
2023-02-22T01:12:10.524Z,4.90
2023-02-22T01:14:43.165Z,5.50
2023-02-22T01:17:12.343Z,4.90
2023-02-22T01:19:42.628Z,5.00
2023-02-22T01:22:11.385Z,5.00
2023-02-22T01:24:41.994Z,4.90
2023-02-22T01:27:11.218Z,5.60
2023-02-22T01:29:41.712Z,5.80
2023-02-22T01:32:12.333Z,5.40
2023-02-22T01:34:41.898Z,4.20
2023-02-22T01:37:13.342Z,4.90
2023-02-22T01:39:44.010Z,5.50
2023-02-22T01:42:13.851Z,5.90
2023-02-22T01:44:44.144Z,5.10
2023-02-22T01:47:13.272Z,5.50
2023-02-22T01:49:45.871Z,5.50
2023-02-22T01:52:20.367Z,5.00
2023-02-22T01:54:53.675Z,4.90
2023-02-22T01:57:27.121Z,5.70
2023-02-22T02:00:01.364Z,5.40
2023-02-22T02:02:31.138Z,4.90
2023-02-22T02:05:00.601Z,5.00
2023-02-22T02:07:31.277Z,5.40
2023-02-22T02:10:05.521Z,4.90
2023-02-22T02:12:37.305Z,5.60
2023-02-22T02:15:21.552Z,4.80
2023-02-22T02:17:52.574Z,5.30
2023-02-22T02:20:29.863Z,5.10
2023-02-22T02:23:09.581Z,5.30
2023-02-22T02:26:17.320Z,4.70
2023-02-22T02:29:18.425Z,4.70
2023-02-22T02:32:21.344Z,4.70
2023-02-22T02:35:00.829Z,4.60
2023-02-22T02:37:44.219Z,4.60
2023-02-22T02:40:21.334Z,4.70
2023-02-22T02:42:59.534Z,5.10
2023-02-22T02:45:34.960Z,4.60
2023-02-22T02:48:10.313Z,4.60
2023-02-22T02:50:45.241Z,4.50
2023-02-22T02:53:18.369Z,5.10
2023-02-22T02:55:47.502Z,4.40
2023-02-22T02:58:21.667Z,5.10
2023-02-22T03:00:55.854Z,4.40
2023-02-22T03:03:45.186Z,4.90
2023-02-22T03:06:49.376Z,3.80
2023-02-22T03:09:29.539Z,4.20
2023-02-22T03:12:09.441Z,5.30
2023-02-22T03:14:43.514Z,4.60
2023-02-22T03:17:19.603Z,5.00
2023-02-22T03:19:55.904Z,4.60
2023-02-22T03:22:32.689Z,4.90
2023-02-22T03:25:09.188Z,4.80
2023-02-22T03:27:44.265Z,4.00
2023-02-22T03:30:20.713Z,3.90
2023-02-22T03:32:54.902Z,3.90
2023-02-22T03:35:35.225Z,4.40
2023-02-22T03:38:09.882Z,4.60
2023-02-22T03:40:44.925Z,4.10
2023-02-22T03:43:20.242Z,4.30
2023-02-22T03:45:52.562Z,4.60
2023-02-22T03:48:27.640Z,3.80
2023-02-22T03:51:04.716Z,4.80
2023-02-22T03:53:37.387Z,3.70
2023-02-22T03:56:12.938Z,3.80
2023-02-22T03:58:46.064Z,4.70
2023-02-22T04:01:15.852Z,3.60
2023-02-22T04:03:46.600Z,4.90
2023-02-22T04:06:18.093Z,3.70
2023-02-22T04:08:48.369Z,3.70
2023-02-22T04:11:18.130Z,3.80
2023-02-22T04:13:47.565Z,4.30
2023-02-22T04:16:17.074Z,3.80
2023-02-22T04:18:46.803Z,3.70
2023-02-22T04:21:21.229Z,3.80
2023-02-22T04:23:53.063Z,3.80
2023-02-22T04:26:22.596Z,4.70
2023-02-22T04:28:57.196Z,3.80
2023-02-22T04:31:28.653Z,4.60
2023-02-22T04:34:02.023Z,3.80
2023-02-22T04:36:43.813Z,4.70
2023-02-22T04:39:13.692Z,4.10
2023-02-22T04:41:43.178Z,3.90
2023-02-22T04:44:15.090Z,3.90
2023-02-22T04:46:46.845Z,4.70
2023-02-22T04:49:17.874Z,3.00
2023-02-22T04:51:51.531Z,4.70
2023-02-22T04:54:25.114Z,3.80
2023-02-22T04:56:54.997Z,3.80
2023-02-22T04:59:24.657Z,4.60
2023-02-22T05:02:02.204Z,4.30
2023-02-22T05:04:31.344Z,4.60
2023-02-22T05:07:02.872Z,3.80
2023-02-22T05:09:32.221Z,4.80
2023-02-22T05:12:02.274Z,3.70
2023-02-22T05:14:33.594Z,3.20
2023-02-22T05:17:03.095Z,3.70
2023-02-22T05:19:32.397Z,4.10
2023-02-22T05:22:05.939Z,3.80
2023-02-22T05:24:35.490Z,3.60
2023-02-22T05:27:04.445Z,3.70
2023-02-22T05:29:34.488Z,3.60
2023-02-22T05:32:08.392Z,3.60
2023-02-22T05:34:37.485Z,3.60
2023-02-22T05:37:08.423Z,4.20
2023-02-22T05:39:37.425Z,3.80
2023-02-22T05:42:07.296Z,3.50
2023-02-22T05:44:36.479Z,3.50
2023-02-22T05:47:05.514Z,4.30
2023-02-22T05:49:34.912Z,4.30
2023-02-22T05:52:03.837Z,4.40
2023-02-22T05:54:34.779Z,4.30
2023-02-22T05:57:03.565Z,3.50
2023-02-22T05:59:32.383Z,4.90
2023-02-22T06:02:01.308Z,4.60
2023-02-22T06:04:30.690Z,3.50
2023-02-22T06:06:59.875Z,4.30
2023-02-22T06:09:29.144Z,3.50
2023-02-22T06:12:00.003Z,3.50
2023-02-22T06:14:29.092Z,3.50
2023-02-22T06:16:59.372Z,4.00
2023-02-22T06:19:29.720Z,3.30
2023-02-22T06:22:00.227Z,4.00
2023-02-22T06:24:29.141Z,3.60
2023-02-22T06:27:01.000Z,4.20
2023-02-22T06:29:30.801Z,4.10
2023-02-22T06:31:59.796Z,4.10
2023-02-22T06:34:28.857Z,3.80
2023-02-22T06:37:01.449Z,4.50
2023-02-22T06:39:30.354Z,4.30
2023-02-22T06:42:01.475Z,3.80
2023-02-22T06:44:30.560Z,3.90
2023-02-22T06:46:59.830Z,4.80
2023-02-22T06:49:29.036Z,4.40
2023-02-22T06:51:57.918Z,5.00
2023-02-22T06:54:27.303Z,3.90
2023-02-22T06:56:56.123Z,4.60
2023-02-22T06:59:26.541Z,4.50
2023-02-22T07:01:56.268Z,4.60
2023-02-22T07:04:25.139Z,5.10
2023-02-22T07:06:54.678Z,4.70
2023-02-22T07:09:23.673Z,4.70
2023-02-22T07:11:52.620Z,4.80
2023-02-22T07:14:21.815Z,4.10
2023-02-22T07:16:52.205Z,4.70
2023-02-22T07:19:21.371Z,4.90
2023-02-22T07:21:50.928Z,4.20
2023-02-22T07:24:19.906Z,4.20
2023-02-22T07:26:48.765Z,4.20
2023-02-22T07:29:17.957Z,5.10
2023-02-22T07:31:47.349Z,4.30
2023-02-22T07:34:18.139Z,5.20
2023-02-22T07:36:51.809Z,4.30
2023-02-22T07:39:21.577Z,4.70
2023-02-22T07:41:54.187Z,5.00
2023-02-22T07:44:28.049Z,4.40
2023-02-22T07:46:59.087Z,4.50
2023-02-22T07:49:37.047Z,4.50
2023-02-22T07:52:08.553Z,4.60
2023-02-22T07:54:38.008Z,4.60
2023-02-22T07:57:09.781Z,4.70
2023-02-22T07:59:39.426Z,5.50
2023-02-22T08:02:19.139Z,5.60
2023-02-22T08:04:50.098Z,4.00
2023-02-22T08:07:19.322Z,5.90
2023-02-22T08:09:48.628Z,5.50
2023-02-22T08:12:17.803Z,5.80
2023-02-22T08:14:49.918Z,5.10
2023-02-22T08:17:22.132Z,5.70
2023-02-22T08:20:01.221Z,5.70
2023-02-22T08:22:30.619Z,5.20
2023-02-22T08:25:00.541Z,5.40
2023-02-22T08:27:35.923Z,6.30
2023-02-22T08:30:06.414Z,4.90
2023-02-22T08:32:36.964Z,5.60
2023-02-22T08:35:09.687Z,6.90
2023-02-22T08:37:47.281Z,5.90
2023-02-22T08:40:20.253Z,6.80
2023-02-22T08:42:50.574Z,6.10
2023-02-22T08:45:19.873Z,6.10
2023-02-22T08:47:51.344Z,6.30
2023-02-22T08:50:37.206Z,6.40
2023-02-22T08:53:07.624Z,6.50
2023-02-22T08:55:40.306Z,7.60
2023-02-22T08:58:12.536Z,7.40
2023-02-22T09:00:45.963Z,8.00
2023-02-22T09:03:19.417Z,7.70
2023-02-22T09:05:56.763Z,7.40
2023-02-22T09:08:26.082Z,7.50
2023-02-22T09:11:05.851Z,7.60
2023-02-22T09:13:37.303Z,7.70
2023-02-22T09:16:07.649Z,8.10
2023-02-22T09:18:44.057Z,8.00
2023-02-22T09:21:19.258Z,9.30
2023-02-22T09:23:50.173Z,8.30
2023-02-22T09:26:23.949Z,9.00
2023-02-22T09:28:53.981Z,9.30
2023-02-22T09:31:28.372Z,8.70
2023-02-22T09:33:57.478Z,8.80
2023-02-22T09:36:28.579Z,9.10
2023-02-22T09:38:59.245Z,9.20
2023-02-22T09:41:38.237Z,9.90
2023-02-22T09:44:20.960Z,10.30
2023-02-22T09:46:54.867Z,10.60
2023-02-22T09:49:33.291Z,9.70
2023-02-22T09:52:08.047Z,9.80
2023-02-22T09:54:43.504Z,10.20
2023-02-22T09:57:17.544Z,9.90
2023-02-22T09:59:53.170Z,10.40
2023-02-22T10:02:32.399Z,11.00
2023-02-22T10:05:06.864Z,11.10
2023-02-22T10:07:47.887Z,10.50
2023-02-22T10:10:19.996Z,10.60
2023-02-22T10:13:00.233Z,10.70
2023-02-22T10:15:51.712Z,11.80
2023-02-22T10:18:51.596Z,11.90
2023-02-22T10:21:43.075Z,11.10
2023-02-22T10:24:27.540Z,11.20
2023-02-22T10:26:59.253Z,11.20
2023-02-22T10:29:34.999Z,11.40
2023-02-22T10:32:09.144Z,11.80
2023-02-22T10:34:51.655Z,11.50
2023-02-22T10:37:27.321Z,12.20
2023-02-22T10:40:06.607Z,11.40
2023-02-22T10:42:36.653Z,11.80
2023-02-22T10:45:25.691Z,11.70
2023-02-22T10:48:01.328Z,11.90
2023-02-22T10:50:35.280Z,12.00
2023-02-22T10:53:08.009Z,12.00
2023-02-22T10:56:15.197Z,12.00
2023-02-22T10:58:47.970Z,12.10
2023-02-22T11:01:29.041Z,12.70
2023-02-22T11:04:06.714Z,13.00
2023-02-22T11:06:38.750Z,12.40
2023-02-22T11:09:18.993Z,12.30
2023-02-22T11:11:51.872Z,12.30
2023-02-22T11:14:31.502Z,12.90
2023-02-22T11:17:02.730Z,12.40
2023-02-22T11:19:33.950Z,12.50
2023-02-22T11:22:14.884Z,12.50
2023-02-22T11:24:51.181Z,12.50
2023-02-22T11:27:32.814Z,12.60
2023-02-22T11:30:25.040Z,13.30
2023-02-22T11:32:58.431Z,12.70
2023-02-22T11:35:42.809Z,12.70
2023-02-22T11:38:18.864Z,13.70
2023-02-22T11:41:14.884Z,13.00
2023-02-22T11:43:48.028Z,12.90
2023-02-22T11:46:28.081Z,12.90
2023-02-22T11:49:02.254Z,13.80
2023-02-22T11:51:51.392Z,12.90
2023-02-22T11:54:40.507Z,13.00
2023-02-22T11:57:24.284Z,12.90
2023-02-22T12:00:10.132Z,13.70
2023-02-22T12:02:59.213Z,13.10
2023-02-22T12:06:02.016Z,13.10
2023-02-22T12:08:43.525Z,13.20
2023-02-22T12:11:22.937Z,13.40
2023-02-22T12:14:09.049Z,13.50
2023-02-22T12:17:02.089Z,13.70
2023-02-22T12:19:36.546Z,13.80
2023-02-22T12:22:11.575Z,14.00
2023-02-22T12:24:51.584Z,14.70
2023-02-22T12:27:29.721Z,14.30
2023-02-22T12:30:05.867Z,14.30
2023-02-22T12:32:45.281Z,14.20
2023-02-22T12:35:24.108Z,14.50
2023-02-22T12:38:08.517Z,14.50
2023-02-22T12:40:46.398Z,14.50
2023-02-22T12:43:22.520Z,14.50
2023-02-22T12:45:57.053Z,14.60
2023-02-22T12:48:39.757Z,14.60
2023-02-22T12:51:20.498Z,14.60
2023-02-22T12:54:01.333Z,14.70
2023-02-22T12:56:35.147Z,14.70
2023-02-22T12:59:12.494Z,14.70
2023-02-22T13:01:45.418Z,15.10
2023-02-22T13:04:21.535Z,14.70
2023-02-22T13:07:04.427Z,14.70
2023-02-22T13:09:55.738Z,14.70
2023-02-22T13:12:29.703Z,14.70
2023-02-22T13:15:10.923Z,14.80
2023-02-22T13:17:47.046Z,14.80
2023-02-22T13:20:24.122Z,14.80
2023-02-22T13:23:00.396Z,14.80
2023-02-22T13:25:38.075Z,14.90
2023-02-22T13:28:22.032Z,14.90
2023-02-22T13:31:09.058Z,15.00
2023-02-22T13:33:53.069Z,15.10
2023-02-22T13:36:37.961Z,15.10
2023-02-22T13:39:46.080Z,15.30
2023-02-22T13:42:34.427Z,15.40
2023-02-22T13:45:36.164Z,15.40
2023-02-22T13:48:27.986Z,15.60
2023-02-22T13:51:20.930Z,15.60
2023-02-22T13:53:58.091Z,15.70
2023-02-22T13:56:28.016Z,15.70
2023-02-22T13:59:02.515Z,15.70
2023-02-22T14:01:40.530Z,15.80
2023-02-22T14:04:39.212Z,15.70
2023-02-22T14:07:57.758Z,15.70
2023-02-22T14:10:48.602Z,15.70
2023-02-22T14:13:19.243Z,15.60
2023-02-22T14:16:21.084Z,15.50
2023-02-22T14:18:52.042Z,15.40
2023-02-22T14:21:22.780Z,15.30
2023-02-22T14:23:53.333Z,15.20
2023-02-22T14:26:28.206Z,15.20
2023-02-22T14:28:59.154Z,15.10
2023-02-22T14:31:36.637Z,15.00
2023-02-22T14:34:10.092Z,15.00
2023-02-22T14:36:53.210Z,15.00
2023-02-22T14:39:32.762Z,14.90
2023-02-22T14:42:08.225Z,14.90
2023-02-22T14:44:42.220Z,14.90
2023-02-22T14:47:20.179Z,14.90
2023-02-22T14:49:52.163Z,14.80
2023-02-22T14:52:25.835Z,14.80
2023-02-22T14:55:06.948Z,14.80
2023-02-22T14:57:48.515Z,14.80
2023-02-22T15:00:23.422Z,15.50
2023-02-22T15:02:57.398Z,14.70
2023-02-22T15:05:30.396Z,14.70
2023-02-22T15:08:01.205Z,14.60
2023-02-22T15:10:32.868Z,14.60
2023-02-22T15:13:11.365Z,14.60
2023-02-22T15:15:44.062Z,14.60
2023-02-22T15:18:22.582Z,14.50
2023-02-22T15:20:56.467Z,14.50
2023-02-22T15:23:30.408Z,14.50
2023-02-22T15:25:59.559Z,14.50
2023-02-22T15:28:32.528Z,14.50
2023-02-22T15:31:25.141Z,14.60
2023-02-22T15:33:55.531Z,14.40
2023-02-22T15:36:28.559Z,14.30
2023-02-22T15:38:57.634Z,14.30
2023-02-22T15:41:30.650Z,14.20
2023-02-22T15:44:14.189Z,14.20
2023-02-22T15:46:50.665Z,14.10
2023-02-22T15:49:23.471Z,14.10
2023-02-22T15:52:07.987Z,14.00
2023-02-22T15:54:46.333Z,14.00
2023-02-22T15:57:18.943Z,13.90
2023-02-22T15:59:53.857Z,14.30
2023-02-22T16:02:34.343Z,13.80
2023-02-22T16:05:07.002Z,13.80
2023-02-22T16:07:42.056Z,13.70
2023-02-22T16:10:51.218Z,13.60
2023-02-22T16:13:32.469Z,13.50
2023-02-22T16:16:05.314Z,13.50
2023-02-22T16:18:36.445Z,13.40
2023-02-22T16:21:11.988Z,13.10
2023-02-22T16:23:49.348Z,13.30
2023-02-22T16:26:25.322Z,13.30
2023-02-22T16:28:58.378Z,13.10
2023-02-22T16:31:33.887Z,13.00
2023-02-22T16:34:04.336Z,13.10
2023-02-22T16:36:49.120Z,13.00
2023-02-22T16:39:24.828Z,13.00
2023-02-22T16:42:11.493Z,12.90
2023-02-22T16:44:41.214Z,12.80
2023-02-22T16:47:14.023Z,12.90
2023-02-22T16:49:43.241Z,12.80
2023-02-22T16:52:16.032Z,12.70
2023-02-22T16:54:50.134Z,12.40
2023-02-22T16:57:22.807Z,12.70
2023-02-22T16:59:54.631Z,12.60
2023-02-22T17:02:27.989Z,12.60
2023-02-22T17:05:01.499Z,13.00
2023-02-22T17:07:30.982Z,12.50
2023-02-22T17:10:00.121Z,12.50
2023-02-22T17:12:32.158Z,13.60
2023-02-22T17:15:06.357Z,12.50
2023-02-22T17:17:40.832Z,12.70
2023-02-22T17:20:13.733Z,12.50
2023-02-22T17:22:43.111Z,12.30
2023-02-22T17:25:23.109Z,12.30
2023-02-22T17:27:52.409Z,12.30
2023-02-22T17:30:23.974Z,12.30
2023-02-22T17:33:03.683Z,12.20
2023-02-22T17:35:36.762Z,12.30
2023-02-22T17:38:07.302Z,12.10
2023-02-22T17:40:37.522Z,12.20
2023-02-22T17:43:09.156Z,12.10
2023-02-22T17:45:41.056Z,12.10
2023-02-22T17:48:11.505Z,12.00
2023-02-22T17:50:42.358Z,12.00
2023-02-22T17:53:12.127Z,12.80
2023-02-22T17:55:43.131Z,12.70
2023-02-22T17:58:14.869Z,12.00
2023-02-22T18:00:47.555Z,12.50
2023-02-22T18:03:25.939Z,11.90
2023-02-22T18:05:57.807Z,11.90
2023-02-22T18:08:36.945Z,11.90
2023-02-22T18:11:30.582Z,11.90
2023-02-22T18:14:02.041Z,11.90
2023-02-22T18:16:31.296Z,11.90
2023-02-22T18:19:03.324Z,11.10
2023-02-22T18:21:33.710Z,12.40
2023-02-22T18:24:03.090Z,11.80
2023-02-22T18:26:32.213Z,11.80
2023-02-22T18:29:02.310Z,11.80
2023-02-22T18:31:32.078Z,11.70
2023-02-22T18:34:02.968Z,11.80
2023-02-22T18:36:33.055Z,11.70
2023-02-22T18:39:03.444Z,11.70
2023-02-22T18:41:32.605Z,12.40
2023-02-22T18:44:03.316Z,11.60
2023-02-22T18:46:32.245Z,11.50
2023-02-22T18:49:02.744Z,11.50
2023-02-22T18:51:35.915Z,11.40
2023-02-22T18:54:05.451Z,11.40
2023-02-22T18:56:34.845Z,11.10
2023-02-22T18:59:07.533Z,11.40
2023-02-22T19:01:38.922Z,11.40
2023-02-22T19:04:11.994Z,11.90
2023-02-22T19:06:43.205Z,11.60
2023-02-22T19:09:12.621Z,11.30
2023-02-22T19:11:47.651Z,11.30
2023-02-22T19:14:20.706Z,11.30
2023-02-22T19:16:51.670Z,11.30
2023-02-22T19:19:26.114Z,11.30
2023-02-22T19:21:57.551Z,11.30
2023-02-22T19:24:26.995Z,11.30
2023-02-22T19:27:00.025Z,11.40
2023-02-22T19:29:31.336Z,11.40
2023-02-22T19:32:00.779Z,11.30
2023-02-22T19:34:31.598Z,11.40
2023-02-22T19:37:01.184Z,11.30
2023-02-22T19:39:31.069Z,11.40
2023-02-22T19:42:01.219Z,11.30
2023-02-22T19:44:30.369Z,11.30
2023-02-22T19:47:02.335Z,11.30
2023-02-22T19:49:36.758Z,11.30
2023-02-22T19:52:07.750Z,11.30
2023-02-22T19:54:36.983Z,11.30
2023-02-22T19:57:06.347Z,11.30
2023-02-22T19:59:35.597Z,11.30
2023-02-22T20:02:05.098Z,11.20
2023-02-22T20:04:37.571Z,11.20
2023-02-22T20:07:06.751Z,11.30
2023-02-22T20:09:37.404Z,11.20
2023-02-22T20:12:08.037Z,11.20
2023-02-22T20:14:37.444Z,11.20
2023-02-22T20:17:08.016Z,11.10
2023-02-22T20:19:41.066Z,11.10
2023-02-22T20:22:10.249Z,11.10
2023-02-22T20:24:39.761Z,11.10
2023-02-22T20:27:09.639Z,11.00
2023-02-22T20:29:39.042Z,11.10
2023-02-22T20:32:12.122Z,11.20
2023-02-22T20:34:47.193Z,11.00
2023-02-22T20:37:16.531Z,11.10
2023-02-22T20:39:45.837Z,11.00
2023-02-22T20:42:15.657Z,11.40
2023-02-22T20:44:45.228Z,11.60
2023-02-22T20:47:14.423Z,11.00
2023-02-22T20:49:45.419Z,12.00
2023-02-22T20:52:14.276Z,10.90
2023-02-22T20:54:50.437Z,10.90
2023-02-22T20:57:19.971Z,11.00
2023-02-22T20:59:49.142Z,11.00
2023-02-22T21:02:20.300Z,11.90
2023-02-22T21:04:51.425Z,10.90
2023-02-22T21:07:22.484Z,10.90
2023-02-22T21:09:52.700Z,10.90
2023-02-22T21:12:22.164Z,10.50
2023-02-22T21:14:51.700Z,10.90
2023-02-22T21:17:28.784Z,11.30
2023-02-22T21:19:59.806Z,11.70
2023-02-22T21:22:28.913Z,10.80
2023-02-22T21:24:58.067Z,11.70
2023-02-22T21:27:28.036Z,10.80
2023-02-22T21:30:00.000Z,10.80
2023-02-22T21:32:32.972Z,11.30
2023-02-22T21:35:03.564Z,10.60
2023-02-22T21:37:34.076Z,10.70
2023-02-22T21:40:08.416Z,10.80
2023-02-22T21:42:37.441Z,10.70
2023-02-22T21:45:08.451Z,10.60
2023-02-22T21:47:39.010Z,11.30
2023-02-22T21:50:10.767Z,10.60
2023-02-22T21:52:39.733Z,10.60
2023-02-22T21:55:09.967Z,10.60
2023-02-22T21:57:40.729Z,10.50
2023-02-22T22:00:17.416Z,10.50
2023-02-22T22:02:48.092Z,10.50
2023-02-22T22:05:33.896Z,10.50
2023-02-22T22:08:07.346Z,10.40
2023-02-22T22:10:37.682Z,10.50
2023-02-22T22:13:09.298Z,10.40
2023-02-22T22:15:38.575Z,11.50
2023-02-22T22:18:08.205Z,10.90
2023-02-22T22:20:39.212Z,10.40
2023-02-22T22:23:09.688Z,10.90
2023-02-22T22:25:39.159Z,10.40
2023-02-22T22:28:09.370Z,10.30
2023-02-22T22:30:39.332Z,10.30
2023-02-22T22:33:11.429Z,10.30
2023-02-22T22:35:42.738Z,10.30
2023-02-22T22:38:11.753Z,10.20
2023-02-22T22:40:40.649Z,10.50
2023-02-22T22:43:09.645Z,10.20
2023-02-22T22:45:39.119Z,10.20
2023-02-22T22:48:08.792Z,11.00
2023-02-22T22:50:37.977Z,10.20
2023-02-22T22:53:10.108Z,11.00
2023-02-22T22:55:42.307Z,10.20
2023-02-22T22:58:13.128Z,10.70
2023-02-22T23:00:47.813Z,10.30
2023-02-22T23:03:19.543Z,10.20
2023-02-22T23:05:49.011Z,10.20
2023-02-22T23:08:29.650Z,10.10
2023-02-22T23:10:59.110Z,11.20
2023-02-22T23:13:29.042Z,10.10
2023-02-22T23:15:59.198Z,11.10
2023-02-22T23:18:28.301Z,10.30
2023-02-22T23:21:05.543Z,11.10
2023-02-22T23:23:36.154Z,10.00
2023-02-22T23:26:11.920Z,10.50
2023-02-22T23:28:43.453Z,9.10
2023-02-22T23:31:16.916Z,10.00
2023-02-22T23:33:48.388Z,10.70
2023-02-22T23:36:18.997Z,10.00
2023-02-22T23:38:51.146Z,10.00
2023-02-22T23:41:20.676Z,10.00
2023-02-22T23:43:51.844Z,10.70
2023-02-22T23:46:21.055Z,9.90
2023-02-22T23:48:52.313Z,9.90
2023-02-22T23:51:25.677Z,10.90
2023-02-22T23:53:57.840Z,10.00
2023-02-22T23:56:30.069Z,9.80
2023-02-22T23:58:59.319Z,10.60
